Time;durP1;ratioP1;P1;durP2;ratioP2;P2;SDS_P1;SDS_P2;PMS_P1;PMS_P2;Temp;Humidity;BMP_temperature;BMP_pressure;BME280_temperature;BME280_humidity;BME280_pressure;Samples;Min_cycle;Max_cycle;Signal;HPM_P1;HPM_P2
2022/09/30 00:00:19;;;;;;;;;;;18.70;90.80;;;;;;5070287;28;19971;-69
2022/09/30 00:02:44;;;;;;;;;;;18.50;90.70;;;;;;5073939;28;20004;-69
2022/09/30 00:05:10;;;;;;;;;;;;;;;;;;5074008;28;19984;-68
2022/09/30 00:07:36;;;;;;;;;;;18.60;90.70;;;;;;5067463;28;19972;-65
2022/09/30 00:10:02;;;;;;;;;;;18.60;90.80;;;;;;5056421;28;20344;-66
2022/09/30 00:12:28;;;;;;;;;;;18.50;90.70;;;;;;5055419;28;20405;-69
2022/09/30 00:14:53;;;;;;;;;;;18.80;90.80;;;;;;5056135;28;19925;-69
2022/09/30 00:17:19;;;;;;;;;;;18.80;90.70;;;;;;5069837;28;20019;-69
2022/09/30 00:19:45;;;;;;;;;;;18.80;90.70;;;;;;5061239;28;19973;-68
2022/09/30 00:22:11;;;;;;;;;;;18.60;90.70;;;;;;5056079;28;19925;-68
2022/09/30 00:24:37;;;;;;;;;;;18.50;90.70;;;;;;5055627;28;20138;-68
2022/09/30 00:27:02;;;;;;;;;;;18.60;90.70;;;;;;5057209;28;19979;-66
2022/09/30 00:29:28;;;;;;;;;;;18.30;90.60;;;;;;5063676;28;20285;-66
2022/09/30 00:31:54;;;;;;;;;;;18.50;90.70;;;;;;5070600;28;19932;-68
2022/09/30 00:34:19;;;;;;;;;;;18.40;90.70;;;;;;5073002;28;19925;-69
2022/09/30 00:36:45;;;;;;;;;;;18.60;90.80;;;;;;5055740;28;19935;-67
2022/09/30 00:39:15;;;;;;;;;;;18.60;90.80;;;;;;5068450;28;19924;-68
2022/09/30 00:41:41;;;;;;;;;;;18.40;90.70;;;;;;5074520;28;19946;-69
2022/09/30 00:44:25;;;;;;;;;;;18.40;90.70;;;;;;5075537;28;19920;-69
2022/09/30 00:46:51;;;;;;;;;;;18.60;90.80;;;;;;5057453;28;20378;-68
2022/09/30 00:49:18;;;;;;;;;;;18.60;90.80;;;;;;5064373;28;19927;-68
2022/09/30 00:51:47;;;;;;;;;;;18.60;90.70;;;;;;5074901;28;19931;-68
2022/09/30 00:54:15;;;;;;;;;;;18.60;90.80;;;;;;5072853;28;20016;-68
2022/09/30 00:56:42;;;;;;;;;;;18.40;90.70;;;;;;5046849;28;20007;-68
2022/09/30 00:59:13;;;;;;;;;;;18.70;90.70;;;;;;5055173;28;19983;-68
2022/09/30 01:01:39;;;;;;;;;;;18.50;90.80;;;;;;5055013;28;20287;-69
2022/09/30 01:04:09;;;;;;;;;;;18.60;90.80;;;;;;5054790;28;19975;-69
2022/09/30 01:06:34;;;;;;;;;;;18.70;90.70;;;;;;5056803;28;19932;-66
2022/09/30 01:09:00;;;;;;;;;;;18.70;90.70;;;;;;5062032;28;19931;-66
2022/09/30 01:11:26;;;;;;;;;;;18.60;90.70;;;;;;5069284;28;20294;-66
2022/09/30 01:13:52;;;;;;;;;;;18.70;90.80;;;;;;5074091;28;20278;-68
2022/09/30 01:16:23;;;;;;;;;;;18.70;90.80;;;;;;5058107;28;19925;-68
2022/09/30 01:18:48;;;;;;;;;;;18.60;90.80;;;;;;5055235;28;19925;-70
2022/09/30 01:21:26;;;;;;;;;;;18.60;90.70;;;;;;5058043;28;19935;-69
2022/09/30 01:23:53;;;;;;;;;;;18.30;90.70;;;;;;5058642;28;19925;-69
2022/09/30 01:26:42;;;;;;;;;;;18.60;90.70;;;;;;5069228;28;20394;-68
2022/09/30 01:29:37;;;;;;;;;;;18.40;90.70;;;;;;5004141;28;20490;-69
2022/09/30 01:32:03;;;;;;;;;;;18.60;90.80;;;;;;4965728;28;19926;-69
2022/09/30 01:34:29;;;;;;;;;;;18.50;90.70;;;;;;4970411;28;19926;-69
2022/09/30 01:37:14;;;;;;;;;;;18.70;90.80;;;;;;4958480;28;19931;-68
2022/09/30 01:40:01;;;;;;;;;;;18.60;90.80;;;;;;4881969;29;19962;-69
2022/09/30 01:42:27;;;;;;;;;;;18.20;90.60;;;;;;4905148;29;19934;-69
2022/09/30 01:44:57;;;;;;;;;;;18.50;90.70;;;;;;4915270;29;19927;-67
2022/09/30 01:47:26;;;;;;;;;;;18.60;90.80;;;;;;4916207;29;19927;-67
2022/09/30 01:49:52;;;;;;;;;;;18.70;90.80;;;;;;4899365;29;20092;-68
2022/09/30 01:52:18;;;;;;;;;;;;;;;;;;4911263;29;20025;-68
2022/09/30 01:54:44;;;;;;;;;;;18.60;90.70;;;;;;4914185;29;19998;-69
2022/09/30 01:57:11;;;;;;;;;;;18.40;90.60;;;;;;4915105;29;19927;-69
2022/09/30 01:59:41;;;;;;;;;;;18.50;90.70;;;;;;4888132;29;19978;-68
2022/09/30 02:02:14;;;;;;;;;;;18.50;90.70;;;;;;4898775;29;20014;-68
2022/09/30 02:04:44;;;;;;;;;;;18.70;90.70;;;;;;4911699;29;20362;-68
2022/09/30 02:07:10;;;;;;;;;;;18.70;90.70;;;;;;4933239;29;19926;-69
2022/09/30 02:09:37;;;;;;;;;;;18.80;90.80;;;;;;4992008;28;19969;-68
2022/09/30 02:12:04;;;;;;;;;;;18.60;90.70;;;;;;4982237;28;19925;-68
2022/09/30 02:14:43;;;;;;;;;;;18.60;90.70;;;;;;4981965;28;19929;-68
2022/09/30 02:17:09;;;;;;;;;;;18.60;90.70;;;;;;5051287;28;20290;-68
2022/09/30 02:19:35;;;;;;;;;;;18.60;90.70;;;;;;5055908;28;19924;-68
2022/09/30 02:22:24;;;;;;;;;;;18.50;90.30;;;;;;5072164;28;19930;-66
2022/09/30 02:24:51;;;;;;;;;;;18.70;90.70;;;;;;5028524;28;19925;-66
2022/09/30 02:27:19;;;;;;;;;;;18.70;90.70;;;;;;5014064;28;19929;-68
2022/09/30 02:29:45;;;;;;;;;;;;;;;;;;5031767;28;20325;-68
2022/09/30 02:32:18;;;;;;;;;;;18.50;90.60;;;;;;5036158;28;19925;-68
2022/09/30 02:34:44;;;;;;;;;;;;;;;;;;5013211;28;20020;-66
2022/09/30 02:37:12;;;;;;;;;;;18.60;90.70;;;;;;5030806;28;19937;-68
2022/09/30 02:39:39;;;;;;;;;;;18.40;90.60;;;;;;5014521;28;19965;-65
2022/09/30 02:42:07;;;;;;;;;;;18.60;90.60;;;;;;5009386;28;19983;-67
2022/09/30 02:44:34;;;;;;;;;;;18.40;90.60;;;;;;5014158;28;19932;-68
2022/09/30 02:47:14;;;;;;;;;;;18.50;90.60;;;;;;5028345;28;19932;-68
2022/09/30 02:49:50;;;;;;;;;;;18.60;90.70;;;;;;5023518;28;19932;-68
2022/09/30 02:52:26;;;;;;;;;;;18.60;90.90;;;;;;5034719;28;19924;-67
2022/09/30 02:54:55;;;;;;;;;;;18.50;90.60;;;;;;5020271;28;19948;-68
2022/09/30 02:57:23;;;;;;;;;;;18.70;90.70;;;;;;5031631;28;19932;-68
2022/09/30 02:59:51;;;;;;;;;;;18.30;90.60;;;;;;5035321;28;19933;-68
2022/09/30 03:02:17;;;;;;;;;;;18.50;90.60;;;;;;5049865;28;19925;-67
2022/09/30 03:04:44;;;;;;;;;;;18.50;90.60;;;;;;5045374;28;19932;-68
2022/09/30 03:07:10;;;;;;;;;;;18.30;90.50;;;;;;5071375;28;20021;-68
2022/09/30 03:09:36;;;;;;;;;;;18.40;90.60;;;;;;5059470;28;20381;-66
2022/09/30 03:12:31;;;;;;;;;;;18.20;90.60;;;;;;5075794;28;20017;-68
2022/09/30 03:15:19;;;;;;;;;;;18.40;90.60;;;;;;5035189;28;20371;-68
2022/09/30 03:17:45;;;;;;;;;;;;;;;;;;4936398;28;19935;-65
2022/09/30 03:20:31;;;;;;;;;;;18.30;90.60;;;;;;4954922;29;19926;-67
2022/09/30 03:23:01;;;;;;;;;;;18.30;90.60;;;;;;4941242;29;19950;-68
2022/09/30 03:25:36;;;;;;;;;;;18.40;90.60;;;;;;4924502;29;20278;-68
2022/09/30 03:28:02;;;;;;;;;;;18.30;90.50;;;;;;4917901;29;20104;-66
2022/09/30 03:30:28;;;;;;;;;;;18.40;90.60;;;;;;4936422;29;20009;-67
2022/09/30 03:33:02;;;;;;;;;;;18.30;90.60;;;;;;4920489;29;19927;-68
2022/09/30 03:35:33;;;;;;;;;;;18.30;90.60;;;;;;4935559;29;19952;-68
2022/09/30 03:38:19;;;;;;;;;;;18.20;90.60;;;;;;4936344;29;19926;-67
2022/09/30 03:41:03;;;;;;;;;;;18.30;90.60;;;;;;4918388;29;20393;-68
2022/09/30 03:43:35;;;;;;;;;;;18.30;90.60;;;;;;4937223;29;20385;-67
2022/09/30 03:46:20;;;;;;;;;;;18.20;90.60;;;;;;4934270;29;19923;-69
2022/09/30 03:48:47;;;;;;;;;;;18.40;90.60;;;;;;4919629;29;20345;-68
2022/09/30 03:51:12;;;;;;;;;;;18.10;90.50;;;;;;4942896;28;19981;-68
2022/09/30 03:53:41;;;;;;;;;;;18.30;90.60;;;;;;4959195;28;19926;-66
2022/09/30 03:56:06;;;;;;;;;;;18.50;90.60;;;;;;5014273;28;20454;-68
2022/09/30 03:58:33;;;;;;;;;;;18.10;90.50;;;;;;5029712;28;19959;-68
2022/09/30 04:00:59;;;;;;;;;;;18.50;90.60;;;;;;5060054;28;19964;-67
2022/09/30 04:03:26;;;;;;;;;;;18.40;90.60;;;;;;5065911;28;19971;-68
2022/09/30 04:05:52;;;;;;;;;;;;;;;;;;5065418;28;19932;-66
2022/09/30 04:08:18;;;;;;;;;;;18.00;90.50;;;;;;5060492;28;19932;-69
2022/09/30 04:10:46;;;;;;;;;;;18.00;90.50;;;;;;5053784;28;21523;-64
2022/09/30 04:13:11;;;;;;;;;;;18.10;90.50;;;;;;5056522;28;19925;-68
2022/09/30 04:15:37;;;;;;;;;;;18.30;90.50;;;;;;5072343;28;19924;-69
2022/09/30 04:18:03;;;;;;;;;;;18.30;90.60;;;;;;5074648;28;19924;-69
2022/09/30 04:20:29;;;;;;;;;;;18.20;90.50;;;;;;5072000;28;19924;-67
2022/09/30 04:22:58;;;;;;;;;;;18.20;90.50;;;;;;5065104;28;19929;-67
2022/09/30 04:25:24;;;;;;;;;;;18.10;90.50;;;;;;5057510;28;19974;-69
2022/09/30 04:27:50;;;;;;;;;;;18.10;90.50;;;;;;5074718;28;19978;-68
2022/09/30 04:30:15;;;;;;;;;;;18.30;90.50;;;;;;5066571;28;20370;-67
2022/09/30 04:32:44;;;;;;;;;;;18.30;90.50;;;;;;5059619;28;19921;-67
2022/09/30 04:35:12;;;;;;;;;;;18.30;90.50;;;;;;5055487;28;19947;-66
2022/09/30 04:37:42;;;;;;;;;;;18.10;90.40;;;;;;5074629;28;20340;-67
2022/09/30 04:40:09;;;;;;;;;;;18.30;90.50;;;;;;5073642;28;20332;-67
2022/09/30 04:42:35;;;;;;;;;;;18.30;90.50;;;;;;5074468;28;19952;-68
2022/09/30 04:45:02;;;;;;;;;;;18.30;90.50;;;;;;5060493;28;19924;-68
2022/09/30 04:47:28;;;;;;;;;;;18.20;90.50;;;;;;5055780;28;19925;-66
2022/09/30 04:49:55;;;;;;;;;;;18.00;90.40;;;;;;5074229;28;19990;-68
2022/09/30 04:52:21;;;;;;;;;;;18.30;90.50;;;;;;5071434;28;20319;-68
2022/09/30 04:54:46;;;;;;;;;;;18.10;90.40;;;;;;5069815;28;19924;-69
2022/09/30 04:57:12;;;;;;;;;;;18.10;90.40;;;;;;5054522;28;19932;-68
2022/09/30 04:59:38;;;;;;;;;;;18.20;90.40;;;;;;5055066;28;19924;-67
2022/09/30 05:02:04;;;;;;;;;;;18.00;90.40;;;;;;5055276;28;19940;-68
2022/09/30 05:04:32;;;;;;;;;;;18.40;90.50;;;;;;5055390;28;20378;-65
2022/09/30 05:06:59;;;;;;;;;;;17.90;90.30;;;;;;5058666;28;19969;-65
2022/09/30 05:09:24;;;;;;;;;;;18.30;90.30;;;;;;5061319;28;19928;-66
2022/09/30 05:11:50;;;;;;;;;;;18.20;90.40;;;;;;5072926;28;19924;-65
2022/09/30 05:14:16;;;;;;;;;;;18.00;90.40;;;;;;5074969;28;19925;-69
2022/09/30 05:16:42;;;;;;;;;;;18.10;90.40;;;;;;5061905;28;20382;-68
2022/09/30 05:19:07;;;;;;;;;;;18.10;90.40;;;;;;5074108;28;19974;-68
2022/09/30 05:21:34;;;;;;;;;;;18.00;90.40;;;;;;5072142;28;19921;-68
2022/09/30 05:24:00;;;;;;;;;;;18.10;90.40;;;;;;5074917;28;20324;-66
2022/09/30 05:26:25;;;;;;;;;;;18.00;90.30;;;;;;5061057;28;20015;-66
2022/09/30 05:28:51;;;;;;;;;;;18.40;90.50;;;;;;5055164;28;19931;-67
2022/09/30 05:31:19;;;;;;;;;;;18.00;90.40;;;;;;5057914;28;20378;-67
2022/09/30 05:33:45;;;;;;;;;;;18.00;90.30;;;;;;5056722;28;20027;-68
2022/09/30 05:36:12;;;;;;;;;;;18.00;90.30;;;;;;5073550;28;19930;-66
2022/09/30 05:38:38;;;;;;;;;;;17.90;90.30;;;;;;5067254;28;19920;-67
2022/09/30 05:41:05;;;;;;;;;;;;;;;;;;5073926;28;19993;-65
2022/09/30 05:43:31;;;;;;;;;;;18.20;90.30;;;;;;5071544;28;19969;-68
2022/09/30 05:45:57;;;;;;;;;;;;;;;;;;5073088;28;19927;-68
2022/09/30 05:48:24;;;;;;;;;;;18.00;90.30;;;;;;5071521;28;19924;-68
2022/09/30 05:50:53;;;;;;;;;;;18.10;90.30;;;;;;5061406;28;19966;-68
2022/09/30 05:53:19;;;;;;;;;;;18.20;90.30;;;;;;5059202;28;20278;-68
2022/09/30 05:55:46;;;;;;;;;;;18.00;90.20;;;;;;5059158;28;19932;-68
2022/09/30 05:58:12;;;;;;;;;;;17.90;90.10;;;;;;5073643;28;19931;-67
2022/09/30 06:00:38;;;;;;;;;;;;;;;;;;5072789;28;19967;-66
2022/09/30 06:03:04;;;;;;;;;;;18.00;90.10;;;;;;5069583;28;19924;-69
2022/09/30 06:05:30;;;;;;;;;;;;;;;;;;5068745;28;20058;-68
2022/09/30 06:07:56;;;;;;;;;;;18.20;90.10;;;;;;5065679;28;19924;-68
2022/09/30 06:10:23;;;;;;;;;;;18.30;90.10;;;;;;5053628;28;19978;-67
2022/09/30 06:12:48;;;;;;;;;;;18.20;90.10;;;;;;5058190;28;19929;-69
2022/09/30 06:15:14;;;;;;;;;;;18.10;90.00;;;;;;5071521;28;19929;-69
2022/09/30 06:17:41;;;;;;;;;;;18.30;90.10;;;;;;5072191;28;19924;-67
2022/09/30 06:20:07;;;;;;;;;;;;;;;;;;5073932;28;20319;-65
2022/09/30 06:22:34;;;;;;;;;;;18.20;90.00;;;;;;5070909;28;20055;-69
2022/09/30 06:25:01;;;;;;;;;;;18.10;90.00;;;;;;5071587;28;20374;-74
2022/09/30 06:27:27;;;;;;;;;;;18.40;90.10;;;;;;5072417;28;19964;-76
2022/09/30 06:29:52;;;;;;;;;;;18.30;90.00;;;;;;5066217;28;19971;-65
2022/09/30 06:32:18;;;;;;;;;;;;;;;;;;5073575;28;19931;-65
2022/09/30 06:34:44;;;;;;;;;;;18.40;90.00;;;;;;5068524;28;19935;-63
2022/09/30 06:37:12;;;;;;;;;;;;;;;;;;5055367;28;20367;-69
2022/09/30 06:39:40;;;;;;;;;;;18.40;90.00;;;;;;5070549;28;19924;-67
2022/09/30 06:42:06;;;;;;;;;;;18.50;90.00;;;;;;5073823;28;19925;-65
2022/09/30 06:44:32;;;;;;;;;;;18.30;89.90;;;;;;5070482;28;19924;-74
2022/09/30 06:46:58;;;;;;;;;;;18.50;90.00;;;;;;5060415;28;19970;-63
2022/09/30 06:49:25;;;;;;;;;;;18.80;90.00;;;;;;5071977;28;19925;-63
2022/09/30 06:51:51;;;;;;;;;;;18.60;89.90;;;;;;5072744;28;19925;-63
2022/09/30 06:54:18;;;;;;;;;;;18.60;89.80;;;;;;5072200;28;19924;-63
2022/09/30 06:56:44;;;;;;;;;;;18.70;89.70;;;;;;5057844;28;19925;-63
2022/09/30 06:59:10;;;;;;;;;;;18.60;89.70;;;;;;5053218;28;19925;-66
2022/09/30 07:01:35;;;;;;;;;;;18.80;89.80;;;;;;5053792;28;20310;-63
2022/09/30 07:04:06;;;;;;;;;;;18.80;89.70;;;;;;5063000;28;20374;-63
2022/09/30 07:06:32;;;;;;;;;;;18.80;89.60;;;;;;5058569;28;20457;-62
2022/09/30 07:08:58;;;;;;;;;;;18.60;89.50;;;;;;5060905;28;20023;-63
2022/09/30 07:14:55;;;;;;;;;;;18.80;89.60;;;;;;5011660;28;19925;-63
2022/09/30 07:17:23;;;;;;;;;;;19.00;89.60;;;;;;4996754;28;19932;-63
2022/09/30 07:19:52;;;;;;;;;;;18.90;89.70;;;;;;5010707;28;19951;-63
2022/09/30 07:22:29;;;;;;;;;;;19.00;89.60;;;;;;5001545;28;19926;-62
2022/09/30 07:28:16;;;;;;;;;;;19.00;89.50;;;;;;5000566;28;19987;-64
2022/09/30 07:30:42;;;;;;;;;;;;;;;;;;4991718;28;19981;-63
2022/09/30 07:33:08;;;;;;;;;;;19.10;89.30;;;;;;4991466;28;19933;-63
2022/09/30 07:35:34;;;;;;;;;;;19.20;89.30;;;;;;4995370;28;19926;-62
2022/09/30 07:38:00;;;;;;;;;;;19.50;89.20;;;;;;4979020;28;19925;-64
2022/09/30 07:40:30;;;;;;;;;;;19.40;89.00;;;;;;4994877;28;19925;-67
2022/09/30 07:42:56;;;;;;;;;;;19.70;89.00;;;;;;5011132;28;20377;-64
2022/09/30 07:45:22;;;;;;;;;;;19.50;88.60;;;;;;4996942;28;20368;-64
2022/09/30 07:47:48;;;;;;;;;;;;;;;;;;5013099;28;19932;-65
2022/09/30 07:50:14;;;;;;;;;;;20.00;88.60;;;;;;5006175;28;20014;-70
2022/09/30 07:52:40;;;;;;;;;;;20.00;88.50;;;;;;5056873;28;20039;-74
2022/09/30 07:55:06;;;;;;;;;;;19.90;88.00;;;;;;5061320;28;20403;-67
2022/09/30 07:57:31;;;;;;;;;;;20.40;87.80;;;;;;5076148;28;20012;-74
2022/09/30 07:59:57;;;;;;;;;;;20.00;87.40;;;;;;5070847;28;19925;-75
2022/09/30 08:02:23;;;;;;;;;;;20.30;87.30;;;;;;5074933;28;19928;-70
2022/09/30 08:04:49;;;;;;;;;;;20.40;86.70;;;;;;5074205;28;19978;-73
2022/09/30 08:07:15;;;;;;;;;;;20.30;86.50;;;;;;5074287;28;19932;-75
2022/09/30 08:09:40;;;;;;;;;;;20.40;86.20;;;;;;5070333;28;19944;-64
2022/09/30 08:12:06;;;;;;;;;;;20.60;86.20;;;;;;5060738;28;19928;-63
2022/09/30 08:14:31;;;;;;;;;;;20.60;86.20;;;;;;5066666;28;19924;-64
2022/09/30 08:16:59;;;;;;;;;;;20.40;85.90;;;;;;5059808;28;19975;-63
2022/09/30 08:19:24;;;;;;;;;;;20.70;86.00;;;;;;5065043;28;20285;-63
2022/09/30 08:21:52;;;;;;;;;;;20.60;85.60;;;;;;5069281;28;19929;-65
2022/09/30 08:24:18;;;;;;;;;;;20.90;86.00;;;;;;5076335;28;20034;-62
2022/09/30 08:26:43;;;;;;;;;;;20.70;85.40;;;;;;5067053;28;20023;-65
2022/09/30 08:29:13;;;;;;;;;;;20.90;85.70;;;;;;5062192;28;20297;-63
2022/09/30 08:31:39;;;;;;;;;;;20.90;85.30;;;;;;5064835;28;20386;-64
2022/09/30 08:34:05;;;;;;;;;;;21.00;85.40;;;;;;5073266;28;19924;-63
2022/09/30 08:36:31;;;;;;;;;;;21.00;85.10;;;;;;5063644;28;19947;-64
2022/09/30 08:38:56;;;;;;;;;;;21.00;85.10;;;;;;5055452;28;20401;-63
2022/09/30 08:41:31;;;;;;;;;;;21.00;84.80;;;;;;5054902;28;19929;-64
2022/09/30 08:44:00;;;;;;;;;;;20.90;83.90;;;;;;5055377;28;19925;-63
2022/09/30 08:46:41;;;;;;;;;;;21.10;84.80;;;;;;5064109;28;19994;-65
2022/09/30 08:49:18;;;;;;;;;;;21.20;84.00;;;;;;5055563;28;20294;-65
2022/09/30 08:51:44;;;;;;;;;;;20.90;83.70;;;;;;5053074;28;19925;-64
2022/09/30 08:54:14;;;;;;;;;;;21.10;84.70;;;;;;5068763;28;20025;-63
2022/09/30 08:56:40;;;;;;;;;;;21.10;83.80;;;;;;5060386;28;20004;-63
2022/09/30 08:59:13;;;;;;;;;;;21.00;85.10;;;;;;5069686;28;19928;-64
2022/09/30 09:01:39;;;;;;;;;;;21.00;83.70;;;;;;5073755;28;20286;-64
2022/09/30 09:04:05;;;;;;;;;;;21.10;84.60;;;;;;5060789;28;19936;-65
2022/09/30 09:06:53;;;;;;;;;;;21.10;85.00;;;;;;5074683;28;19932;-65
2022/09/30 09:09:19;;;;;;;;;;;21.00;84.50;;;;;;5070854;28;20069;-65
2022/09/30 09:11:48;;;;;;;;;;;21.20;84.90;;;;;;5073807;28;20010;-65
2022/09/30 09:14:13;;;;;;;;;;;20.80;83.50;;;;;;5072072;28;20077;-66
2022/09/30 09:16:49;;;;;;;;;;;21.00;84.90;;;;;;5074165;28;20010;-65
2022/09/30 09:19:16;;;;;;;;;;;21.10;84.00;;;;;;5072002;28;19931;-69
2022/09/30 09:21:44;;;;;;;;;;;21.10;85.50;;;;;;5073880;28;19943;-72
2022/09/30 09:24:17;;;;;;;;;;;20.70;85.10;;;;;;5073026;28;19931;-71
2022/09/30 09:26:43;;;;;;;;;;;21.10;85.40;;;;;;5069188;28;20302;-74
2022/09/30 09:29:12;;;;;;;;;;;20.90;85.30;;;;;;5074252;28;19924;-74
2022/09/30 09:31:37;;;;;;;;;;;21.00;85.40;;;;;;5072753;28;19924;-63
2022/09/30 09:34:08;;;;;;;;;;;20.70;85.60;;;;;;5069292;28;20020;-71
2022/09/30 09:36:39;;;;;;;;;;;20.60;85.40;;;;;;5063677;28;19968;-63
2022/09/30 09:39:21;;;;;;;;;;;21.10;84.80;;;;;;5073242;28;19925;-63
2022/09/30 09:41:52;;;;;;;;;;;20.90;84.90;;;;;;5069550;28;19950;-66
2022/09/30 09:44:23;;;;;;;;;;;20.90;85.00;;;;;;5054395;28;20289;-68
2022/09/30 09:46:51;;;;;;;;;;;20.80;84.50;;;;;;5067352;28;19976;-63
2022/09/30 09:49:22;;;;;;;;;;;20.70;86.30;;;;;;5059765;28;19925;-73
2022/09/30 09:51:50;;;;;;;;;;;20.70;85.20;;;;;;5069919;28;19929;-70
2022/09/30 09:54:16;;;;;;;;;;;20.70;86.20;;;;;;5072441;28;19931;-74
2022/09/30 09:56:41;;;;;;;;;;;20.90;86.90;;;;;;5073175;28;19928;-75
2022/09/30 09:59:08;;;;;;;;;;;21.00;86.90;;;;;;5072527;28;19925;-63
2022/09/30 10:01:41;;;;;;;;;;;20.90;86.60;;;;;;5057750;28;20322;-74
2022/09/30 10:04:14;;;;;;;;;;;20.70;85.60;;;;;;5073371;28;19970;-75
2022/09/30 10:06:44;;;;;;;;;;;20.80;85.60;;;;;;5073693;28;19978;-75
2022/09/30 10:09:24;;;;;;;;;;;20.70;85.80;;;;;;5074206;28;19928;-75
2022/09/30 10:11:51;;;;;;;;;;;20.90;86.00;;;;;;5073142;28;20397;-75
2022/09/30 10:14:18;;;;;;;;;;;20.80;87.50;;;;;;5072842;28;19931;-74
2022/09/30 10:16:43;;;;;;;;;;;20.80;86.60;;;;;;5072952;28;19932;-75
2022/09/30 10:19:26;;;;;;;;;;;20.80;87.40;;;;;;5072854;28;20282;-68
2022/09/30 10:22:07;;;;;;;;;;;20.90;86.20;;;;;;5072357;28;20278;-70
2022/09/30 10:24:32;;;;;;;;;;;21.00;86.40;;;;;;5073132;28;19924;-73
2022/09/30 10:26:58;;;;;;;;;;;20.90;87.30;;;;;;5072513;28;20294;-74
2022/09/30 10:29:31;;;;;;;;;;;20.70;87.30;;;;;;5072547;28;19928;-74
2022/09/30 10:32:00;;;;;;;;;;;20.80;86.30;;;;;;5072662;28;19978;-63
2022/09/30 10:34:33;;;;;;;;;;;20.60;87.10;;;;;;5046967;28;19932;-74
2022/09/30 10:37:00;;;;;;;;;;;21.20;86.60;;;;;;5067844;28;19925;-72
2022/09/30 10:39:29;;;;;;;;;;;20.70;87.70;;;;;;5068856;28;19921;-63
2022/09/30 10:42:02;;;;;;;;;;;21.30;86.70;;;;;;5085676;28;19929;-75
2022/09/30 10:44:27;;;;;;;;;;;21.30;87.50;;;;;;5070580;28;19924;-63
2022/09/30 10:46:57;;;;;;;;;;;20.80;87.20;;;;;;5072110;28;19924;-69
2022/09/30 10:49:27;;;;;;;;;;;21.20;87.80;;;;;;5072275;28;19924;-75
2022/09/30 10:51:53;;;;;;;;;;;21.20;86.40;;;;;;5073451;28;19931;-62
2022/09/30 10:54:37;;;;;;;;;;;21.00;87.60;;;;;;5064498;28;19975;-66
2022/09/30 10:57:03;;;;;;;;;;;21.20;87.20;;;;;;5068826;28;19924;-71
2022/09/30 10:59:31;;;;;;;;;;;21.20;87.20;;;;;;5071470;28;20011;-66
2022/09/30 11:02:15;;;;;;;;;;;21.10;86.10;;;;;;5073049;28;19968;-63
2022/09/30 11:04:42;;;;;;;;;;;21.30;87.50;;;;;;5053995;28;19925;-63
2022/09/30 11:07:11;;;;;;;;;;;21.40;87.50;;;;;;5071270;28;19932;-72
2022/09/30 11:09:38;;;;;;;;;;;21.70;86.20;;;;;;5058942;28;20011;-63
2022/09/30 11:12:24;;;;;;;;;;;21.40;87.30;;;;;;5071037;28;20372;-63
2022/09/30 11:15:05;;;;;;;;;;;21.30;85.60;;;;;;5070224;28;19975;-63
2022/09/30 11:17:41;;;;;;;;;;;21.60;85.70;;;;;;5055540;28;19932;-63
2022/09/30 11:20:28;;;;;;;;;;;21.60;87.10;;;;;;5068664;28;20313;-63
2022/09/30 11:22:59;;;;;;;;;;;21.50;85.60;;;;;;5076060;28;20066;-65
2022/09/30 11:25:31;;;;;;;;;;;21.90;85.60;;;;;;5074491;28;20310;-63
2022/09/30 11:28:01;;;;;;;;;;;21.60;85.30;;;;;;5057083;28;20024;-64
2022/09/30 11:30:30;;;;;;;;;;;21.90;86.70;;;;;;5055883;28;19924;-66
2022/09/30 11:33:14;;;;;;;;;;;22.00;86.60;;;;;;5065292;28;20046;-64
2022/09/30 11:35:40;;;;;;;;;;;22.00;85.00;;;;;;5074957;28;20023;-63
2022/09/30 11:38:32;;;;;;;;;;;22.00;86.00;;;;;;5073779;28;19924;-67
2022/09/30 11:41:03;;;;;;;;;;;21.70;84.50;;;;;;5051641;28;19925;-69
2022/09/30 11:43:49;;;;;;;;;;;22.20;84.40;;;;;;5074493;28;19929;-66
2022/09/30 11:46:20;;;;;;;;;;;22.10;84.20;;;;;;5074908;28;19925;-73
2022/09/30 11:48:49;;;;;;;;;;;22.10;84.20;;;;;;5074441;28;20405;-75
2022/09/30 11:51:34;;;;;;;;;;;22.10;84.00;;;;;;5065447;28;19947;-64
2022/09/30 11:54:01;;;;;;;;;;;22.20;83.90;;;;;;5076281;28;19925;-66
2022/09/30 11:56:44;;;;;;;;;;;22.20;85.00;;;;;;5075414;28;19948;-74
2022/09/30 11:59:13;;;;;;;;;;;22.30;83.70;;;;;;5075037;28;19928;-74
2022/09/30 12:01:43;;;;;;;;;;;22.40;84.80;;;;;;5072036;28;19965;-75
2022/09/30 12:04:09;;;;;;;;;;;22.00;84.40;;;;;;5059791;28;19924;-77
2022/09/30 12:06:36;;;;;;;;;;;22.10;84.40;;;;;;5067094;28;19930;-64
2022/09/30 12:09:22;;;;;;;;;;;22.20;84.20;;;;;;5064669;28;20451;-75
2022/09/30 12:11:50;;;;;;;;;;;22.00;83.60;;;;;;5052306;28;19924;-74
2022/09/30 12:14:17;;;;;;;;;;;22.40;83.40;;;;;;5076232;28;19924;-76
2022/09/30 12:16:43;;;;;;;;;;;22.30;83.30;;;;;;5076498;28;19967;-75
2022/09/30 12:19:35;;;;;;;;;;;22.00;83.00;;;;;;5074821;28;20385;-78
2022/09/30 12:22:05;;;;;;;;;;;22.00;81.70;;;;;;5069554;28;19975;-78
2022/09/30 12:24:34;;;;;;;;;;;21.90;81.60;;;;;;5074128;28;20386;-72
2022/09/30 12:27:00;;;;;;;;;;;22.00;83.30;;;;;;5075102;28;20341;-78
2022/09/30 12:32:26;;;;;;;;;;;22.00;81.90;;;;;;5052498;28;19967;-70
2022/09/30 12:35:11;;;;;;;;;;;22.10;81.90;;;;;;5054676;28;20378;-78
2022/09/30 12:37:43;;;;;;;;;;;22.10;81.60;;;;;;5061896;28;19978;-80
2022/09/30 12:40:17;;;;;;;;;;;22.00;81.50;;;;;;5059045;28;19925;-80
2022/09/30 12:42:50;;;;;;;;;;;21.90;80.70;;;;;;5070364;28;19924;-73
2022/09/30 12:45:15;;;;;;;;;;;21.90;81.10;;;;;;5056928;28;19958;-76
2022/09/30 12:47:44;;;;;;;;;;;21.80;81.90;;;;;;5075232;28;19958;-80
2022/09/30 12:50:12;;;;;;;;;;;21.70;81.30;;;;;;5075401;28;19979;-80
2022/09/30 12:52:37;;;;;;;;;;;21.70;82.80;;;;;;5074288;28;20370;-74
2022/09/30 12:55:06;;;;;;;;;;;21.80;82.70;;;;;;5074221;28;19976;-75
2022/09/30 12:57:33;;;;;;;;;;;21.80;81.60;;;;;;5075438;28;19924;-80
2022/09/30 13:00:25;;;;;;;;;;;21.70;83.00;;;;;;5073862;28;19971;-76
2022/09/30 13:02:54;;;;;;;;;;;21.70;81.60;;;;;;5033080;28;20004;-80
2022/09/30 13:05:26;;;;;;;;;;;21.90;81.80;;;;;;5015682;28;19925;-63
2022/09/30 13:08:04;;;;;;;;;;;22.00;81.60;;;;;;5023376;28;20019;-80
2022/09/30 13:10:30;;;;;;;;;;;21.80;81.80;;;;;;5016548;28;19925;-67
2022/09/30 13:13:08;;;;;;;;;;;21.80;82.50;;;;;;5015070;28;20411;-78
2022/09/30 13:15:35;;;;;;;;;;;21.50;81.50;;;;;;5031802;28;19929;-64
2022/09/30 13:18:19;;;;;;;;;;;21.70;82.00;;;;;;5032651;28;19921;-63
2022/09/30 13:20:57;;;;;;;;;;;21.60;81.20;;;;;;5032774;28;19925;-64
2022/09/30 13:23:34;;;;;;;;;;;21.60;81.10;;;;;;5031815;28;19971;-63
2022/09/30 13:26:01;;;;;;;;;;;21.50;81.20;;;;;;5016068;28;20407;-64
2022/09/30 13:28:29;;;;;;;;;;;21.30;82.00;;;;;;5032626;28;19925;-63
2022/09/30 13:31:10;;;;;;;;;;;21.50;82.40;;;;;;5026147;28;19930;-63
2022/09/30 13:33:48;;;;;;;;;;;21.40;81.40;;;;;;5001281;28;19925;-73
2022/09/30 13:36:15;;;;;;;;;;;21.40;81.40;;;;;;5031675;28;19929;-63
2022/09/30 13:38:41;;;;;;;;;;;21.30;82.50;;;;;;5033976;28;20292;-80
2022/09/30 13:41:13;;;;;;;;;;;21.40;82.00;;;;;;5054264;28;19931;-63
2022/09/30 13:43:40;;;;;;;;;;;21.40;82.80;;;;;;5053325;28;20334;-64
2022/09/30 13:46:26;;;;;;;;;;;21.00;83.00;;;;;;5047225;28;20434;-64
2022/09/30 13:49:17;;;;;;;;;;;21.20;81.50;;;;;;5030055;28;19931;-80
2022/09/30 13:51:43;;;;;;;;;;;21.20;81.70;;;;;;5042502;28;19929;-63
2022/09/30 13:54:13;;;;;;;;;;;20.80;82.60;;;;;;5044359;28;19925;-63
2022/09/30 13:56:39;;;;;;;;;;;21.00;83.00;;;;;;5052114;28;20313;-75
2022/09/30 13:59:08;;;;;;;;;;;20.90;82.70;;;;;;5035019;28;20016;-83
2022/09/30 14:01:52;;;;;;;;;;;21.00;81.80;;;;;;5051531;28;19929;-62
2022/09/30 14:04:30;;;;;;;;;;;21.10;81.90;;;;;;5034159;28;19964;-63
2022/09/30 14:07:19;;;;;;;;;;;20.90;81.90;;;;;;5050243;28;20306;-63
2022/09/30 14:09:57;;;;;;;;;;;20.90;81.90;;;;;;4988624;28;19929;-63
2022/09/30 14:12:22;;;;;;;;;;;20.80;81.80;;;;;;4987520;28;20384;-64
2022/09/30 14:15:00;;;;;;;;;;;21.00;82.90;;;;;;4989792;28;20056;-62
2022/09/30 14:17:25;;;;;;;;;;;20.80;81.70;;;;;;4992458;28;19926;-63
2022/09/30 14:20:14;;;;;;;;;;;20.70;83.10;;;;;;4991808;28;19922;-63
2022/09/30 14:22:40;;;;;;;;;;;20.60;81.90;;;;;;4953321;29;19926;-63
2022/09/30 14:25:12;;;;;;;;;;;20.80;82.90;;;;;;4937812;29;19922;-63
2022/09/30 14:27:47;;;;;;;;;;;20.60;81.60;;;;;;4950852;29;20016;-62
2022/09/30 14:30:14;;;;;;;;;;;20.50;81.60;;;;;;4904297;29;19926;-63
2022/09/30 14:32:46;;;;;;;;;;;20.50;82.50;;;;;;4933839;29;19937;-63
2022/09/30 14:35:14;;;;;;;;;;;20.60;81.80;;;;;;4917436;29;20010;-63
2022/09/30 14:37:44;;;;;;;;;;;20.60;83.20;;;;;;4929954;29;19934;-62
2022/09/30 14:40:11;;;;;;;;;;;20.40;81.70;;;;;;4918543;29;19934;-62
2022/09/30 14:42:37;;;;;;;;;;;20.70;83.10;;;;;;4933244;29;19978;-62
2022/09/30 14:45:03;;;;;;;;;;;20.60;82.90;;;;;;4933857;29;19926;-62
2022/09/30 14:47:32;;;;;;;;;;;20.50;82.30;;;;;;4965511;28;19980;-61